Time;durP1;ratioP1;P1;durP2;ratioP2;P2;SDS_P1;SDS_P2;PMS_P1;PMS_P2;Temp;Humidity;BMP_temperature;BMP_pressure;BME280_temperature;BME280_humidity;BME280_pressure;Samples;Min_cycle;Max_cycle;Signal;HPM_P1;HPM_P2
2023/03/13 00:00:50;;;;;;;11.53;3.00;;;11.30;99.90;;;;;;4187706;28;20040;-71
2023/03/13 00:02:50;;;;;;;21.00;4.47;;;11.20;99.90;;;;;;4189750;28;20089;-72
2023/03/13 00:04:51;;;;;;;14.48;3.30;;;11.20;99.90;;;;;;4191586;28;20087;-72
2023/03/13 00:06:52;;;;;;;19.02;4.07;;;11.30;99.90;;;;;;4189436;28;20062;-72
2023/03/13 00:08:53;;;;;;;15.82;3.22;;;11.30;99.90;;;;;;4190135;28;20058;-72
2023/03/13 00:10:54;;;;;;;18.27;3.80;;;11.30;99.90;;;;;;4190716;28;20041;-72
2023/03/13 00:12:54;;;;;;;12.07;3.53;;;11.30;99.90;;;;;;4185533;28;20477;-72
2023/03/13 00:14:55;;;;;;;13.45;3.05;;;11.30;99.90;;;;;;4191099;28;20041;-72
2023/03/13 00:16:56;;;;;;;14.75;3.20;;;11.30;99.90;;;;;;4186622;28;20043;-72
2023/03/13 00:18:57;;;;;;;17.80;3.83;;;11.30;99.90;;;;;;4188584;28;20545;-72
2023/03/13 00:21:04;;;;;;;17.20;3.58;;;11.20;99.90;;;;;;4191712;28;20121;-73
2023/03/13 00:23:04;;;;;;;10.35;3.30;;;11.20;99.90;;;;;;4186319;28;20036;-72
2023/03/13 00:25:05;;;;;;;13.23;3.30;;;11.20;99.90;;;;;;4190473;28;20037;-72
2023/03/13 00:27:06;;;;;;;14.27;3.28;;;11.20;99.90;;;;;;4188944;28;20036;-72
2023/03/13 00:29:07;;;;;;;17.83;3.63;;;11.20;99.90;;;;;;4190125;28;20044;-72
2023/03/13 00:31:16;;;;;;;13.63;3.17;;;11.20;99.90;;;;;;4188874;28;20044;-72
2023/03/13 00:33:16;;;;;;;15.90;3.47;;;11.20;99.90;;;;;;4189165;28;20067;-71
2023/03/13 00:35:17;;;;;;;12.35;3.35;;;11.20;99.90;;;;;;4188867;28;20506;-71
2023/03/13 00:37:18;;;;;;;14.38;3.47;;;11.20;99.90;;;;;;4184661;28;20437;-73
2023/03/13 00:39:19;;;;;;;13.57;3.83;;;11.20;99.90;;;;;;4188797;28;20193;-73
2023/03/13 00:41:26;;;;;;;14.88;3.70;;;11.20;99.90;;;;;;4190221;28;20075;-73
2023/03/13 00:43:27;;;;;;;13.48;3.63;;;11.20;99.90;;;;;;4190449;28;20379;-74
2023/03/13 00:45:27;;;;;;;16.50;3.50;;;11.20;99.90;;;;;;4187154;28;20040;-74
2023/03/13 00:47:28;;;;;;;12.90;3.97;;;11.20;99.90;;;;;;4187621;28;20131;-73
2023/03/13 00:49:28;;;;;;;11.32;3.33;;;11.20;99.90;;;;;;4186146;28;20045;-74
2023/03/13 00:51:29;;;;;;;18.75;3.70;;;11.20;99.90;;;;;;4189985;28;20056;-74
2023/03/13 00:53:30;;;;;;;15.35;3.50;;;11.20;99.90;;;;;;4192345;28;20505;-74
2023/03/13 00:55:30;;;;;;;14.07;3.80;;;11.20;99.90;;;;;;4188004;28;20041;-74
2023/03/13 00:57:31;;;;;;;13.07;3.45;;;11.20;99.90;;;;;;4189952;28;20032;-74
2023/03/13 00:59:32;;;;;;;15.55;3.55;;;11.20;99.90;;;;;;4189476;28;20090;-74
2023/03/13 01:01:35;;;;;;;15.35;3.30;;;11.10;99.90;;;;;;4186016;28;20033;-76
2023/03/13 01:03:37;;;;;;;14.70;3.55;;;11.20;99.90;;;;;;4187302;28;20037;-76
2023/03/13 01:05:38;;;;;;;15.52;4.00;;;11.20;99.90;;;;;;4187603;28;20683;-76
2023/03/13 01:07:39;;;;;;;18.23;3.38;;;11.20;99.90;;;;;;4190352;28;20048;-76
2023/03/13 01:09:39;;;;;;;13.63;3.10;;;11.10;99.90;;;;;;4190416;28;20086;-76
2023/03/13 01:11:41;;;;;;;11.63;3.20;;;11.10;99.90;;;;;;4189024;28;20036;-77
2023/03/13 01:13:42;;;;;;;18.00;4.47;;;11.10;99.90;;;;;;4189951;28;20484;-76
2023/03/13 01:15:43;;;;;;;14.73;3.05;;;11.10;99.90;;;;;;4187504;28;20055;-76
2023/03/13 01:17:44;;;;;;;11.40;3.10;;;11.10;99.90;;;;;;4188909;28;20044;-76
2023/03/13 01:19:44;;;;;;;11.82;2.85;;;11.10;99.90;;;;;;4188749;28;20041;-76
2023/03/13 01:21:45;;;;;;;12.90;3.22;;;11.20;99.90;;;;;;4188140;28;20044;-77
2023/03/13 01:23:47;;;;;;;14.63;3.65;;;11.20;99.90;;;;;;4188533;28;20044;-77
2023/03/13 01:25:48;;;;;;;14.65;3.45;;;11.10;99.90;;;;;;4185287;28;20043;-77
2023/03/13 01:27:48;;;;;;;17.45;3.50;;;11.10;99.90;;;;;;4190108;28;20087;-77
2023/03/13 01:29:49;;;;;;;22.23;4.55;;;11.10;99.90;;;;;;4188435;28;20071;-77
2023/03/13 01:31:49;;;;;;;11.07;3.40;;;11.10;99.90;;;;;;4190255;28;20071;-77
2023/03/13 01:33:55;;;;;;;20.88;3.90;;;11.10;99.90;;;;;;4188920;28;20041;-76
2023/03/13 01:36:03;;;;;;;17.85;4.00;;;11.10;99.90;;;;;;4186640;28;20049;-77
2023/03/13 01:38:03;;;;;;;17.05;3.70;;;11.10;99.90;;;;;;4188794;28;20049;-78
2023/03/13 01:40:04;;;;;;;14.20;3.20;;;11.10;99.90;;;;;;4191488;28;20078;-78
2023/03/13 01:42:05;;;;;;;13.88;3.50;;;11.10;99.90;;;;;;4187943;28;20036;-73
2023/03/13 01:44:21;;;;;;;18.38;3.80;;;11.00;99.90;;;;;;4188994;28;20379;-77
2023/03/13 01:46:27;;;;;;;15.82;3.30;;;11.00;99.90;;;;;;4188888;28;20472;-78
2023/03/13 01:48:31;;;;;;;9.43;2.85;;;11.00;99.90;;;;;;4180372;28;20048;-78
2023/03/13 01:50:31;;;;;;;15.27;3.60;;;11.00;99.90;;;;;;4188681;28;20107;-78
2023/03/13 01:52:32;;;;;;;14.07;3.38;;;11.00;99.90;;;;;;4188708;28;20025;-78
2023/03/13 01:54:55;;;;;;;10.50;3.15;;;11.00;99.90;;;;;;4187756;28;20486;-78
2023/03/13 01:57:08;;;;;;;11.82;3.00;;;10.90;99.90;;;;;;4187905;28;20148;-78
2023/03/13 01:59:09;;;;;;;;;;;11.00;99.90;;;;;;4183963;28;20033;-77
2023/03/13 02:01:11;;;;;;;16.00;3.42;;;11.00;99.90;;;;;;4191787;28;19908;-78
2023/03/13 02:03:17;;;;;;;13.40;3.50;;;10.90;99.90;;;;;;4190967;28;20541;-78
2023/03/13 02:05:21;;;;;;;11.77;3.15;;;10.90;99.90;;;;;;4187295;28;20052;-77
2023/03/13 02:07:41;;;;;;;11.60;3.28;;;10.90;99.90;;;;;;4191891;28;20028;-77
2023/03/13 02:09:48;;;;;;;14.02;3.55;;;10.90;99.90;;;;;;4192144;28;20271;-78
2023/03/13 02:11:57;;;;;;;12.30;3.20;;;10.90;99.90;;;;;;4191656;28;20094;-79
2023/03/13 02:13:59;;;;;;;12.95;3.03;;;10.90;99.90;;;;;;4191874;28;20039;-79
2023/03/13 02:16:00;;;;;;;10.45;2.65;;;10.90;99.90;;;;;;4190403;28;20499;-77
2023/03/13 02:18:01;;;;;;;9.43;2.80;;;10.90;99.90;;;;;;4189641;28;20036;-79
2023/03/13 02:20:02;;;;;;;12.43;3.45;;;10.90;99.90;;;;;;4190382;28;20036;-78
2023/03/13 02:22:33;;;;;;;10.98;3.03;;;10.90;99.90;;;;;;4184146;28;20033;-79
2023/03/13 02:24:44;;;;;;;12.77;3.17;;;10.90;99.90;;;;;;4191432;28;20391;-79
2023/03/13 02:26:45;;;;;;;15.45;3.15;;;10.90;99.90;;;;;;4186775;28;20063;-79
2023/03/13 02:28:46;;;;;;;14.30;3.10;;;10.80;99.90;;;;;;4189334;28;20048;-79
2023/03/13 02:30:50;;;;;;;9.35;2.92;;;10.90;99.90;;;;;;4191080;28;20037;-74
2023/03/13 02:32:50;;;;;;;8.57;2.35;;;10.90;99.90;;;;;;4192471;28;20445;-78
2023/03/13 02:34:56;;;;;;;13.68;2.80;;;10.90;99.90;;;;;;4187824;28;20037;-78
2023/03/13 02:36:58;;;;;;;14.07;3.15;;;10.90;99.90;;;;;;4190571;28;20124;-79
2023/03/13 02:39:03;;;;;;;13.50;2.75;;;10.90;99.90;;;;;;4190996;28;20447;-79
2023/03/13 02:41:04;;;;;;;9.45;2.28;;;10.90;99.90;;;;;;4191123;28;20037;-79
2023/03/13 02:43:14;;;;;;;8.30;2.55;;;10.90;99.90;;;;;;4191938;28;20467;-79
2023/03/13 02:45:16;;;;;;;10.40;2.72;;;11.00;99.90;;;;;;4187271;28;20029;-79
2023/03/13 02:47:19;;;;;;;10.67;2.33;;;11.00;99.90;;;;;;4190398;28;20050;-79
2023/03/13 02:49:28;;;;;;;12.00;2.30;;;11.00;99.90;;;;;;4189751;28;20159;-78
2023/03/13 02:51:32;;;;;;;8.30;1.92;;;11.00;99.90;;;;;;4187453;28;20055;-79
2023/03/13 02:53:35;;;;;;;6.78;1.70;;;11.00;99.90;;;;;;4192542;28;20060;-80
2023/03/13 02:55:41;;;;;;;6.18;1.98;;;11.00;99.90;;;;;;4188803;28;20043;-79
2023/03/13 02:57:41;;;;;;;8.43;2.03;;;11.00;99.90;;;;;;4188469;28;20115;-80
2023/03/13 02:59:42;;;;;;;3.60;1.42;;;11.10;99.90;;;;;;4190379;28;20075;-80
2023/03/13 03:01:42;;;;;;;5.35;1.50;;;11.10;99.90;;;;;;4191179;28;20032;-80
2023/03/13 03:03:43;;;;;;;3.95;1.30;;;11.10;99.90;;;;;;4192189;28;20479;-80
2023/03/13 03:05:43;;;;;;;3.72;1.63;;;11.20;99.90;;;;;;4186960;28;20044;-80
2023/03/13 03:07:44;;;;;;;5.70;1.42;;;11.20;99.90;;;;;;4189991;28;20032;-80
2023/03/13 03:09:45;;;;;;;8.77;2.05;;;11.30;99.90;;;;;;4183882;28;20040;-81
2023/03/13 03:11:46;;;;;;;4.45;1.55;;;11.30;99.90;;;;;;4192749;28;20073;-81
2023/03/13 03:13:46;;;;;;;6.45;1.88;;;11.30;99.90;;;;;;4194724;28;20123;-81
2023/03/13 03:15:47;;;;;;;5.25;1.55;;;11.30;99.90;;;;;;4192081;28;20429;-82
2023/03/13 03:17:47;;;;;;;4.03;1.55;;;11.30;99.90;;;;;;4190113;28;20090;-81
2023/03/13 03:19:48;;;;;;;4.68;1.55;;;11.30;99.90;;;;;;4193668;28;20045;-81
2023/03/13 03:21:49;;;;;;;5.30;1.58;;;11.40;99.90;;;;;;4194059;28;20110;-81
2023/03/13 03:23:50;;;;;;;6.25;1.67;;;11.40;99.90;;;;;;4195739;28;20553;-77
2023/03/13 03:25:50;;;;;;;5.85;1.60;;;11.40;99.90;;;;;;4191302;28;20037;-81
2023/03/13 03:27:51;;;;;;;5.40;1.65;;;11.40;99.90;;;;;;4190777;28;20071;-81
2023/03/13 03:29:51;;;;;;;4.28;1.75;;;11.50;99.90;;;;;;4191762;28;20044;-81
2023/03/13 03:31:52;;;;;;;6.07;1.50;;;11.50;99.90;;;;;;4192270;28;20040;-80
2023/03/13 03:33:53;;;;;;;4.53;1.73;;;11.50;99.90;;;;;;4194468;28;20086;-82
2023/03/13 03:35:59;;;;;;;2.78;1.58;;;11.50;99.90;;;;;;4190850;28;20480;-80
2023/03/13 03:38:00;;;;;;;4.50;1.80;;;11.50;99.90;;;;;;4193029;28;20079;-80
2023/03/13 03:40:00;;;;;;;4.20;1.50;;;11.50;99.90;;;;;;4194962;28;20028;-81
2023/03/13 03:42:01;;;;;;;5.13;1.67;;;11.60;99.90;;;;;;4186133;28;20040;-81
2023/03/13 03:44:01;;;;;;;2.53;1.63;;;11.60;99.90;;;;;;4193521;28;20036;-81
2023/03/13 03:46:03;;;;;;;4.38;1.95;;;11.60;99.90;;;;;;4192023;28;20070;-80
2023/03/13 03:48:03;;;;;;;5.55;1.90;;;11.70;99.90;;;;;;4192641;28;20395;-80
2023/03/13 03:50:06;;;;;;;3.53;1.80;;;11.60;99.90;;;;;;4194236;28;20033;-79
2023/03/13 03:52:07;;;;;;;4.30;2.05;;;11.60;99.90;;;;;;4188745;28;20031;-80
2023/03/13 03:54:07;;;;;;;5.53;2.05;;;11.70;99.90;;;;;;4194054;28;20036;-79
2023/03/13 03:56:08;;;;;;;3.92;1.70;;;11.70;99.90;;;;;;4192233;28;20028;-81
2023/03/13 03:58:08;;;;;;;4.10;1.60;;;11.70;99.90;;;;;;4187174;28;20045;-80
2023/03/13 04:00:12;;;;;;;4.50;1.65;;;11.70;99.90;;;;;;4189393;28;20116;-79
2023/03/13 04:02:13;;;;;;;5.43;1.55;;;11.70;99.90;;;;;;4190455;28;20040;-80
2023/03/13 04:04:13;;;;;;;2.83;1.52;;;11.70;99.90;;;;;;4194444;28;20738;-80
2023/03/13 04:06:14;;;;;;;3.60;2.00;;;11.70;99.90;;;;;;4191642;28;20036;-80
2023/03/13 04:08:15;;;;;;;4.63;1.63;;;11.70;99.90;;;;;;4188927;28;20040;-79
2023/03/13 04:10:16;;;;;;;3.20;1.55;;;11.70;99.90;;;;;;4193452;28;20040;-80
2023/03/13 04:12:16;;;;;;;3.53;1.60;;;11.80;99.90;;;;;;4193264;28;20065;-80
2023/03/13 04:14:17;;;;;;;3.05;1.35;;;11.80;99.90;;;;;;4194162;28;20040;-80
2023/03/13 04:16:17;;;;;;;4.07;1.58;;;11.80;99.90;;;;;;4190696;28;20044;-80
2023/03/13 04:18:18;;;;;;;2.00;1.10;;;11.80;99.90;;;;;;4184541;28;20475;-80
2023/03/13 04:20:18;;;;;;;3.67;1.92;;;11.80;99.90;;;;;;4193175;28;20543;-80
2023/03/13 04:22:19;;;;;;;2.00;1.60;;;11.80;99.90;;;;;;4194143;28;20387;-80
2023/03/13 04:24:20;;;;;;;3.55;1.90;;;11.80;99.90;;;;;;4194003;28;20028;-73
2023/03/13 04:26:20;;;;;;;1.95;1.30;;;11.80;99.90;;;;;;4187047;28;20033;-78
2023/03/13 04:28:21;;;;;;;2.72;1.70;;;11.80;99.90;;;;;;4189738;28;20033;-81
2023/03/13 04:30:22;;;;;;;3.25;1.77;;;11.90;99.90;;;;;;4185412;28;20029;-80
2023/03/13 04:32:23;;;;;;;4.57;2.20;;;11.90;99.90;;;;;;4189542;28;20059;-80
2023/03/13 04:34:23;;;;;;;5.50;1.95;;;11.90;99.90;;;;;;4193119;28;20029;-79
2023/03/13 04:36:24;;;;;;;4.13;1.70;;;11.90;99.90;;;;;;4191821;28;20041;-80
2023/03/13 04:38:24;;;;;;;3.10;1.65;;;11.90;99.90;;;;;;4189736;28;20044;-80
2023/03/13 04:40:25;;;;;;;2.75;1.90;;;11.90;99.90;;;;;;4193331;28;20066;-81
2023/03/13 04:42:26;;;;;;;2.45;1.67;;;12.00;99.90;;;;;;4192551;28;20033;-81
2023/03/13 04:44:26;;;;;;;4.10;1.85;;;12.00;99.90;;;;;;4192624;28;20456;-81
2023/03/13 04:46:27;;;;;;;3.45;1.90;;;11.90;99.90;;;;;;4184887;28;20106;-81
2023/03/13 04:48:28;;;;;;;2.50;1.80;;;12.00;99.90;;;;;;4191366;28;20475;-80
2023/03/13 04:50:28;;;;;;;3.00;1.60;;;12.10;99.90;;;;;;4192507;28;20360;-81
2023/03/13 04:52:29;;;;;;;6.35;2.25;;;12.00;99.90;;;;;;4193437;28;20036;-80
2023/03/13 04:54:29;;;;;;;3.03;1.88;;;12.10;99.90;;;;;;4193086;28;20352;-80
2023/03/13 04:56:30;;;;;;;1.70;1.45;;;12.10;99.90;;;;;;4187388;28;20029;-81
2023/03/13 04:58:30;;;;;;;1.67;1.50;;;12.10;99.90;;;;;;4189273;28;20076;-80
2023/03/13 05:00:31;;;;;;;3.30;2.03;;;12.20;99.90;;;;;;4191602;28;20041;-80
2023/03/13 05:02:32;;;;;;;2.35;1.80;;;12.20;99.90;;;;;;4192467;28;20487;-80
2023/03/13 05:04:32;;;;;;;2.97;1.80;;;12.20;99.90;;;;;;4191728;28;20051;-80
2023/03/13 05:06:33;;;;;;;2.38;1.77;;;12.20;99.90;;;;;;4190532;28;20379;-80
2023/03/13 05:08:35;;;;;;;2.60;1.70;;;12.20;99.90;;;;;;4190814;28;20043;-80
2023/03/13 05:10:35;;;;;;;2.50;2.00;;;12.20;99.90;;;;;;4191916;28;20476;-80
2023/03/13 05:12:37;;;;;;;4.20;2.20;;;12.20;99.90;;;;;;4189339;28;20036;-80
2023/03/13 05:14:37;;;;;;;2.35;1.70;;;12.20;99.90;;;;;;4192719;28;20047;-80
2023/03/13 05:16:38;;;;;;;1.98;1.48;;;12.30;99.90;;;;;;4188205;28;20385;-72
2023/03/13 05:18:39;;;;;;;2.55;1.67;;;12.30;99.90;;;;;;4190114;28;20063;-79
2023/03/13 05:20:39;;;;;;;4.88;1.83;;;12.40;99.90;;;;;;4191947;28;20041;-80
2023/03/13 05:22:40;;;;;;;4.38;1.92;;;12.30;99.90;;;;;;4191833;28;20045;-81
2023/03/13 05:24:40;;;;;;;4.13;2.03;;;12.40;99.90;;;;;;4190622;28;20129;-80
2023/03/13 05:26:41;;;;;;;2.67;1.90;;;12.40;99.90;;;;;;4189465;28;20040;-80
2023/03/13 05:28:41;;;;;;;3.67;1.90;;;12.40;99.90;;;;;;4191175;28;20064;-79
2023/03/13 05:30:42;;;;;;;5.80;1.92;;;12.40;99.90;;;;;;4191075;28;20082;-80
2023/03/13 05:32:42;;;;;;;2.75;2.00;;;12.40;99.90;;;;;;4192032;28;20040;-80
2023/03/13 05:34:43;;;;;;;2.42;1.80;;;12.50;99.90;;;;;;4192176;28;20054;-80
2023/03/13 05:36:44;;;;;;;1.60;1.50;;;12.50;99.90;;;;;;4190404;28;20029;-80
2023/03/13 05:38:44;;;;;;;4.95;1.70;;;12.50;99.90;;;;;;4191288;28;20040;-80
2023/03/13 05:40:45;;;;;;;4.05;1.70;;;12.50;99.90;;;;;;4190178;28;20028;-80
2023/03/13 05:42:45;;;;;;;3.15;1.90;;;12.50;99.90;;;;;;4192820;28;20087;-80
2023/03/13 05:44:46;;;;;;;2.13;1.55;;;12.50;99.90;;;;;;4186474;28;20037;-79
2023/03/13 05:46:46;;;;;;;1.80;1.48;;;12.50;99.90;;;;;;4188787;28;21194;-82
2023/03/13 05:48:47;;;;;;;3.53;1.75;;;12.50;99.90;;;;;;4191999;28;20491;-81
2023/03/13 05:50:47;;;;;;;3.22;1.55;;;12.60;99.90;;;;;;4184133;28;20613;-80
2023/03/13 05:52:48;;;;;;;4.85;1.88;;;12.60;99.90;;;;;;4191778;28;20120;-80
2023/03/13 05:54:49;;;;;;;3.83;1.58;;;12.60;99.90;;;;;;4191835;28;20047;-81
2023/03/13 05:56:50;;;;;;;3.78;1.90;;;12.60;99.90;;;;;;4189886;28;20454;-81
2023/03/13 05:58:51;;;;;;;2.13;1.70;;;12.60;99.90;;;;;;4189956;28;20045;-80
2023/03/13 06:00:52;;;;;;;5.72;2.00;;;12.70;99.90;;;;;;4191174;28;20362;-77
2023/03/13 06:02:52;;;;;;;2.72;1.33;;;12.70;99.90;;;;;;4192800;28;20028;-80
2023/03/13 06:04:53;;;;;;;5.97;2.33;;;12.70;99.90;;;;;;4191474;28;20305;-80
2023/03/13 06:06:53;;;;;;;10.13;1.77;;;12.70;99.90;;;;;;4183348;28;20029;-81
2023/03/13 06:08:54;;;;;;;2.60;1.73;;;12.70;99.90;;;;;;4188993;28;20387;-76
2023/03/13 06:10:58;;;;;;;5.78;2.22;;;12.80;99.90;;;;;;4187405;28;20043;-76
2023/03/13 06:12:59;;;;;;;4.22;1.60;;;12.80;99.90;;;;;;4189417;28;20059;-77
2023/03/13 06:14:59;;;;;;;3.13;1.80;;;12.80;99.90;;;;;;4192250;28;20036;-77
2023/03/13 06:17:00;;;;;;;3.42;1.85;;;12.80;99.90;;;;;;4188791;28;20039;-76
2023/03/13 06:19:01;;;;;;;3.40;1.90;;;12.90;99.90;;;;;;4188504;28;20112;-77
2023/03/13 06:21:01;;;;;;;2.92;1.70;;;12.90;99.90;;;;;;4189439;28;20086;-77
2023/03/13 06:23:02;;;;;;;5.47;2.00;;;12.90;99.90;;;;;;4188815;28;20463;-76
2023/03/13 06:25:04;;;;;;;5.20;2.20;;;12.90;99.90;;;;;;4188627;28;20166;-77
2023/03/13 06:27:05;;;;;;;3.30;1.52;;;13.00;99.90;;;;;;4186248;28;20025;-77
2023/03/13 06:29:06;;;;;;;4.03;1.97;;;13.00;99.90;;;;;;4186628;28;20043;-77
2023/03/13 06:31:07;;;;;;;2.35;1.40;;;13.00;99.90;;;;;;4189079;28;20104;-76
2023/03/13 06:33:07;;;;;;;5.28;1.85;;;13.00;99.90;;;;;;4191308;28;20040;-76
2023/03/13 06:35:08;;;;;;;3.30;1.83;;;13.00;99.90;;;;;;4196408;28;20024;-76
2023/03/13 06:37:09;;;;;;;4.85;1.85;;;13.00;99.90;;;;;;4187419;28;20103;-76
2023/03/13 06:39:11;;;;;;;3.72;1.70;;;13.00;99.90;;;;;;4184166;28;20518;-76
2023/03/13 06:41:11;;;;;;;4.28;1.88;;;13.10;99.90;;;;;;4187746;28;20037;-75
2023/03/13 06:43:12;;;;;;;5.13;2.08;;;13.10;99.90;;;;;;4193321;28;20540;-75
2023/03/13 06:45:13;;;;;;;2.55;1.55;;;13.10;99.90;;;;;;4193506;28;20040;-76
2023/03/13 06:47:13;;;;;;;5.30;1.77;;;13.10;99.90;;;;;;4183756;28;20036;-75
2023/03/13 06:49:14;;;;;;;2.72;1.80;;;13.10;99.90;;;;;;4189917;28;20056;-77
2023/03/13 06:51:17;;;;;;;4.57;2.00;;;13.20;99.90;;;;;;4184825;28;20135;-75
2023/03/13 06:53:19;;;;;;;3.55;1.98;;;13.20;99.90;;;;;;4182540;28;20035;-75
2023/03/13 06:55:20;;;;;;;4.70;1.88;;;13.10;99.90;;;;;;4187281;28;20109;-76
2023/03/13 06:57:20;;;;;;;4.38;2.13;;;13.20;99.90;;;;;;4188203;28;20028;-75
2023/03/13 06:59:21;;;;;;;5.90;2.00;;;13.20;99.90;;;;;;4188395;28;20041;-75
2023/03/13 07:01:21;;;;;;;4.28;2.10;;;13.20;99.90;;;;;;4185410;28;20032;-76
2023/03/13 07:03:23;;;;;;;2.63;1.45;;;13.20;99.90;;;;;;4189630;28;20036;-75
2023/03/13 07:05:24;;;;;;;3.70;1.48;;;13.20;99.90;;;;;;4148671;28;1142912;-76
2023/03/13 07:07:24;;;;;;;4.88;1.63;;;13.30;99.90;;;;;;4188171;28;20577;-75
2023/03/13 07:09:25;;;;;;;5.97;1.83;;;13.30;99.90;;;;;;4190898;28;20040;-71
2023/03/13 07:11:25;;;;;;;3.03;1.67;;;13.30;99.90;;;;;;4186472;28;20495;-74
2023/03/13 07:13:26;;;;;;;4.13;1.90;;;13.30;99.90;;;;;;4185830;28;20090;-74
2023/03/13 07:15:27;;;;;;;4.63;1.90;;;13.30;99.90;;;;;;4190371;28;20040;-74
2023/03/13 07:17:28;;;;;;;7.68;2.50;;;13.30;99.90;;;;;;4188957;28;20037;-74
2023/03/13 07:19:28;;;;;;;4.82;1.83;;;13.40;99.90;;;;;;4191043;28;20391;-74
2023/03/13 07:21:29;;;;;;;5.95;2.13;;;13.40;99.90;;;;;;4188790;28;20033;-75
2023/03/13 07:23:31;;;;;;;4.57;1.80;;;13.40;99.90;;;;;;4191849;28;20043;-74
2023/03/13 07:25:31;;;;;;;4.65;1.60;;;13.40;99.90;;;;;;4189843;28;20060;-76
2023/03/13 07:27:32;;;;;;;4.72;2.30;;;13.40;99.90;;;;;;4190231;28;20437;-75
2023/03/13 07:29:32;;;;;;;6.55;2.08;;;13.40;99.90;;;;;;4190011;28;20080;-76
2023/03/13 07:31:34;;;;;;;4.90;2.25;;;13.50;99.90;;;;;;4188274;28;20090;-75
2023/03/13 07:33:34;;;;;;;7.93;1.90;;;13.50;99.90;;;;;;4188992;28;20099;-75
2023/03/13 07:35:35;;;;;;;3.95;1.65;;;13.50;99.90;;;;;;4189569;28;20082;-75
2023/03/13 07:37:35;;;;;;;6.30;2.10;;;13.50;99.90;;;;;;4188964;28;20077;-75
2023/03/13 07:39:36;;;;;;;4.90;1.83;;;13.50;99.90;;;;;;4191548;28;20471;-75
2023/03/13 07:41:37;;;;;;;7.70;2.22;;;13.50;99.90;;;;;;4188336;28;20020;-75
2023/03/13 07:43:39;;;;;;;6.45;2.17;;;13.50;99.90;;;;;;4190723;28;20066;-75
2023/03/13 07:45:59;;;;;;;6.05;1.88;;;13.60;99.90;;;;;;4189311;28;20051;-75
2023/03/13 07:47:59;;;;;;;5.07;1.90;;;13.60;99.90;;;;;;4187726;28;20383;-74
2023/03/13 07:50:00;;;;;;;6.30;2.30;;;13.60;99.90;;;;;;4188155;28;20051;-75
2023/03/13 07:52:00;;;;;;;8.38;2.00;;;13.60;99.90;;;;;;4187119;28;20039;-74
2023/03/13 07:54:01;;;;;;;5.43;2.03;;;13.60;99.90;;;;;;4182984;28;20045;-74
2023/03/13 07:56:09;;;;;;;6.90;2.22;;;13.60;99.90;;;;;;4185815;28;20120;-74
2023/03/13 07:58:09;;;;;;;4.68;1.85;;;13.60;99.90;;;;;;4189411;28;20041;-74
2023/03/13 08:00:15;;;;;;;5.63;2.10;;;13.60;99.90;;;;;;4185196;28;20037;-74
2023/03/13 08:02:16;;;;;;;4.10;1.75;;;13.60;99.90;;;;;;4184174;28;20384;-74
2023/03/13 08:04:16;;;;;;;8.77;2.55;;;13.60;99.90;;;;;;4182910;28;20043;-74
2023/03/13 08:06:20;;;;;;;9.25;2.10;;;13.60;99.90;;;;;;4185862;28;20037;-75
2023/03/13 08:08:20;;;;;;;9.00;2.10;;;13.70;99.90;;;;;;4188209;28;20048;-74
2023/03/13 08:10:21;;;;;;;9.68;2.33;;;13.70;99.90;;;;;;4185703;28;20040;-74
2023/03/13 08:12:21;;;;;;;7.07;1.85;;;13.70;99.90;;;;;;4185606;28;20064;-74
2023/03/13 08:14:22;;;;;;;3.75;1.95;;;13.70;99.90;;;;;;4188723;28;20036;-74
2023/03/13 08:16:25;;;;;;;8.27;2.28;;;13.70;99.90;;;;;;4188344;28;20037;-74
2023/03/13 08:18:26;;;;;;;9.02;2.47;;;13.70;99.90;;;;;;4187624;28;20041;-74
2023/03/13 08:20:27;;;;;;;6.88;2.13;;;13.70;99.90;;;;;;4187135;28;20059;-74
2023/03/13 08:22:27;;;;;;;6.45;2.22;;;13.70;99.90;;;;;;4189365;28;20033;-75
2023/03/13 08:24:28;;;;;;;7.63;2.33;;;13.80;99.90;;;;;;4187218;28;20033;-74
2023/03/13 08:26:29;;;;;;;7.25;2.30;;;13.80;99.90;;;;;;4187458;28;20442;-74
2023/03/13 08:28:30;;;;;;;9.10;2.65;;;13.80;99.90;;;;;;4187842;28;20046;-74
2023/03/13 08:30:31;;;;;;;6.38;2.38;;;13.80;99.90;;;;;;4186934;28;20495;-74
2023/03/13 08:32:35;;;;;;;7.47;1.90;;;13.80;99.90;;;;;;4189336;28;20040;-74
2023/03/13 08:34:37;;;;;;;4.93;2.17;;;13.80;99.90;;;;;;4186991;28;20171;-74
2023/03/13 08:36:38;;;;;;;5.55;2.15;;;13.90;99.90;;;;;;4187070;28;20112;-74
2023/03/13 08:38:41;;;;;;;8.60;2.35;;;13.90;99.90;;;;;;4189111;28;20039;-74
2023/03/13 08:40:41;;;;;;;6.25;2.30;;;13.90;99.90;;;;;;4186850;28;20040;-73
2023/03/13 08:42:42;;;;;;;9.15;3.22;;;13.90;99.90;;;;;;4187316;28;20561;-72
2023/03/13 08:44:43;;;;;;;7.63;2.40;;;13.90;99.90;;;;;;4187244;28;20071;-73
2023/03/13 08:46:44;;;;;;;10.48;1.98;;;13.90;99.90;;;;;;4186670;28;20037;-74
2023/03/13 08:48:49;;;;;;;10.30;2.60;;;14.00;99.90;;;;;;4186978;28;20557;-74
2023/03/13 08:51:09;;;;;;;11.10;2.53;;;14.00;99.90;;;;;;4185569;28;20041;-74
2023/03/13 08:53:10;;;;;;;12.38;3.10;;;14.00;99.90;;;;;;4187741;28;20149;-74
2023/03/13 08:55:10;;;;;;;11.15;2.40;;;14.00;99.90;;;;;;4186875;28;20510;-74
2023/03/13 08:57:11;;;;;;;9.90;2.22;;;14.10;99.90;;;;;;4187990;28;20040;-73
2023/03/13 08:59:14;;;;;;;5.35;2.05;;;14.10;99.90;;;;;;4186046;28;20142;-71
2023/03/13 09:01:14;;;;;;;;;;;14.20;99.90;;;;;;4185558;28;20345;-73
2023/03/13 09:03:16;;;;;;;9.05;2.20;;;14.20;99.90;;;;;;4187663;28;20007;-73
2023/03/13 09:05:17;;;;;;;8.90;2.63;;;14.30;99.90;;;;;;4174346;28;20057;-73
2023/03/13 09:07:18;;;;;;;7.47;2.20;;;14.30;99.90;;;;;;4170782;28;20091;-74
2023/03/13 09:09:19;;;;;;;6.38;2.08;;;14.30;99.90;;;;;;4160217;28;20477;-73
2023/03/13 09:11:20;;;;;;;6.00;2.00;;;14.40;99.90;;;;;;4168976;28;20140;-73
2023/03/13 09:13:21;;;;;;;7.18;2.55;;;14.40;99.90;;;;;;4170362;28;20048;-73
2023/03/13 09:15:21;;;;;;;6.25;2.05;;;14.50;99.90;;;;;;4168940;28;20597;-74
2023/03/13 09:17:22;;;;;;;4.68;2.33;;;14.50;99.90;;;;;;4170360;28;20465;-74
2023/03/13 09:19:22;;;;;;;5.82;2.35;;;14.60;99.90;;;;;;4170599;28;20610;-74
2023/03/13 09:21:34;;;;;;;4.40;2.00;;;14.70;99.90;;;;;;4166865;28;20120;-74
2023/03/13 09:23:35;;;;;;;6.15;2.17;;;14.70;99.90;;;;;;4148071;28;20041;-74
2023/03/13 09:25:37;;;;;;;5.22;2.20;;;14.80;99.90;;;;;;4168839;28;20400;-74
2023/03/13 09:27:38;;;;;;;;;;;14.80;99.90;;;;;;4169284;28;20116;-73
2023/03/13 09:29:41;;;;;;;4.75;2.30;;;14.90;99.90;;;;;;4167767;28;19971;-73
2023/03/13 09:31:41;;;;;;;6.55;2.15;;;14.90;99.90;;;;;;4167791;28;20041;-73
2023/03/13 09:33:43;;;;;;;6.22;1.92;;;14.90;99.90;;;;;;4167424;28;20079;-73
2023/03/13 09:35:49;;;;;;;4.32;1.80;;;14.90;99.90;;;;;;4126858;28;20045;-72
2023/03/13 09:37:50;;;;;;;6.28;1.98;;;14.90;99.90;;;;;;4167465;28;20052;-73
2023/03/13 09:39:51;;;;;;;5.38;1.70;;;14.90;99.90;;;;;;4166230;28;20040;-75
2023/03/13 09:41:54;;;;;;;7.47;2.10;;;14.90;99.90;;;;;;4165428;28;20041;-73
2023/03/13 09:44:29;;;;;;;3.83;1.83;;;14.90;99.90;;;;;;4167367;28;20064;-73
2023/03/13 09:46:51;;;;;;;3.80;1.90;;;15.00;99.90;;;;;;4120484;28;20039;-74
2023/03/13 09:48:59;;;;;;;4.10;1.63;;;15.10;99.90;;;;;;4167394;28;20507;-74
2023/03/13 09:51:27;;;;;;;5.35;1.90;;;15.20;99.90;;;;;;4162388;28;20040;-74
2023/03/13 09:53:46;;;;;;;5.15;1.90;;;15.20;99.90;;;;;;4168077;28;20550;-74
2023/03/13 09:55:46;;;;;;;6.20;2.28;;;15.30;99.90;;;;;;4164560;28;20033;-73
2023/03/13 09:57:54;;;;;;;4.10;2.03;;;15.30;99.90;;;;;;4166510;28;20059;-73
2023/03/13 10:00:11;;;;;;;9.60;4.32;;;15.30;99.90;;;;;;4166131;28;20071;-74
2023/03/13 10:02:35;;;;;;;7.00;2.42;;;15.30;99.90;;;;;;4164722;28;20055;-73
2023/03/13 10:04:52;;;;;;;6.15;1.92;;;15.40;99.90;;;;;;4162529;28;20492;-74
2023/03/13 10:06:52;;;;;;;5.72;1.95;;;15.40;99.90;;;;;;4180757;28;20056;-74
2023/03/13 10:08:53;;;;;;;5.75;1.75;;;15.40;99.90;;;;;;4183977;28;20118;-73
2023/03/13 10:11:05;;;;;;;6.78;1.73;;;15.40;99.90;;;;;;4180667;28;20103;-74
2023/03/13 10:13:22;;;;;;;2.53;1.43;;;15.40;99.90;;;;;;4182557;28;20074;-74
2023/03/13 10:15:35;;;;;;;6.18;1.55;;;15.40;99.90;;;;;;4182531;28;20868;-73
2023/03/13 10:17:38;;;;;;;5.55;1.80;;;15.40;99.90;;;;;;4181388;28;20086;-73
2023/03/13 10:19:42;;;;;;;6.20;1.70;;;15.40;99.90;;;;;;4183140;28;20055;-74
2023/03/13 10:21:46;;;;;;;5.22;1.50;;;15.40;99.90;;;;;;4180010;28;20040;-73
2023/03/13 10:23:59;;;;;;;3.38;1.38;;;15.50;99.90;;;;;;4177686;28;20131;-73
2023/03/13 10:26:00;;;;;;;4.03;1.50;;;15.50;99.90;;;;;;4180904;28;20127;-73
2023/03/13 10:28:01;;;;;;;4.05;1.50;;;15.50;99.90;;;;;;4183245;28;20821;-74
2023/03/13 10:30:02;;;;;;;4.07;1.52;;;15.60;99.90;;;;;;4183451;28;20037;-73
2023/03/13 10:32:05;;;;;;;3.97;1.70;;;15.70;99.90;;;;;;4181181;28;20045;-73
2023/03/13 10:34:11;;;;;;;5.00;1.55;;;15.70;99.90;;;;;;4182945;28;20559;-73
2023/03/13 10:36:13;;;;;;;3.35;1.35;;;15.80;99.90;;;;;;4182488;28;20039;-73